createdAt,value
2022-08-22T00:01:30.685Z,22.02
2022-08-22T00:02:42.144Z,25.38
2022-08-22T00:02:54.996Z,23.40
2022-08-22T00:03:09.335Z,21.98
2022-08-22T00:03:11.074Z,24.72
2022-08-22T00:04:36.340Z,22.11
2022-08-22T00:07:12.000Z,22.04
2022-08-22T00:10:11.802Z,22.14
2022-08-22T00:13:24.231Z,22.01
2022-08-22T00:16:16.414Z,21.95
2022-08-22T00:19:12.246Z,21.98
2022-08-22T00:22:00.555Z,21.91
2022-08-22T00:24:41.739Z,21.82
2022-08-22T00:27:24.210Z,21.88
2022-08-22T00:30:11.985Z,22.01
2022-08-22T00:32:48.511Z,22.09
2022-08-22T00:35:42.924Z,21.92
2022-08-22T00:38:18.523Z,21.82
2022-08-22T00:41:10.615Z,21.90
2022-08-22T00:43:53.559Z,21.96
2022-08-22T00:46:45.966Z,21.99
2022-08-22T00:49:43.867Z,22.11
2022-08-22T00:52:20.521Z,21.98
2022-08-22T00:55:18.800Z,21.90
2022-08-22T00:58:05.864Z,21.84
2022-08-22T01:00:42.906Z,21.84
2022-08-22T01:03:16.680Z,21.88
2022-08-22T01:06:21.111Z,21.89
2022-08-22T01:09:08.016Z,22.06
2022-08-22T01:11:58.744Z,22.12
2022-08-22T01:14:54.813Z,22.03
2022-08-22T01:17:47.233Z,22.03
2022-08-22T01:20:33.195Z,22.12
2022-08-22T01:23:12.675Z,22.20
2022-08-22T01:25:55.279Z,22.19
2022-08-22T01:28:44.519Z,22.15
2022-08-22T01:31:52.221Z,22.10
2022-08-22T01:34:40.330Z,22.09
2022-08-22T01:37:52.789Z,22.14
2022-08-22T01:40:53.975Z,22.21
2022-08-22T01:43:59.082Z,22.03
2022-08-22T01:46:34.250Z,21.91
2022-08-22T01:49:07.996Z,21.95
2022-08-22T01:52:06.798Z,21.87
2022-08-22T01:54:43.222Z,21.75
2022-08-22T01:57:12.525Z,21.80
2022-08-22T01:59:43.213Z,21.91
2022-08-22T02:02:36.458Z,21.89
2022-08-22T02:05:28.730Z,22.01
2022-08-22T02:08:22.075Z,22.03
2022-08-22T02:11:00.038Z,21.92
2022-08-22T02:13:36.184Z,21.89
2022-08-22T02:16:10.378Z,21.78
2022-08-22T02:18:54.374Z,21.60
2022-08-22T02:21:33.862Z,21.31
2022-08-22T02:24:14.554Z,21.17
2022-08-22T02:27:04.132Z,21.11
2022-08-22T02:30:04.064Z,21.00
2022-08-22T02:32:41.532Z,20.75
2022-08-22T02:35:36.869Z,20.81
2022-08-22T02:38:39.630Z,20.74
2022-08-22T02:41:26.472Z,20.69
2022-08-22T02:44:03.691Z,20.72
2022-08-22T02:46:43.407Z,20.77
2022-08-22T02:49:11.869Z,20.94
2022-08-22T02:52:00.086Z,21.10
2022-08-22T02:54:38.492Z,21.14
2022-08-22T02:57:26.486Z,21.15
2022-08-22T03:00:41.012Z,21.22
2022-08-22T03:03:25.229Z,21.09
2022-08-22T03:06:01.065Z,20.94
2022-08-22T03:08:32.331Z,20.84
2022-08-22T03:11:11.833Z,20.84
2022-08-22T03:14:13.100Z,20.94
2022-08-22T03:16:47.978Z,20.94
2022-08-22T03:19:38.683Z,20.90
2022-08-22T03:22:13.901Z,20.67
2022-08-22T03:24:55.500Z,20.55
2022-08-22T03:27:32.598Z,20.43
2022-08-22T03:30:22.907Z,20.22
2022-08-22T03:32:55.665Z,20.26
2022-08-22T03:35:41.398Z,20.27
2022-08-22T03:38:31.967Z,20.12
2022-08-22T03:41:27.378Z,20.09
2022-08-22T03:44:11.992Z,20.03
2022-08-22T03:46:52.786Z,19.85
2022-08-22T03:49:44.875Z,19.89
2022-08-22T03:52:31.007Z,19.90
2022-08-22T03:55:20.842Z,19.95
2022-08-22T03:57:51.010Z,19.92
2022-08-22T04:00:31.975Z,19.86
2022-08-22T04:03:45.898Z,19.59
2022-08-22T04:06:35.409Z,19.64
2022-08-22T04:09:24.659Z,19.69
2022-08-22T04:12:20.108Z,19.58
2022-08-22T04:15:07.784Z,19.37
2022-08-22T04:17:58.470Z,19.41
2022-08-22T04:20:40.901Z,19.36
2022-08-22T04:23:37.055Z,19.34
2022-08-22T04:26:16.331Z,19.23
2022-08-22T04:29:02.088Z,19.19
2022-08-22T04:31:42.455Z,19.26
2022-08-22T04:34:28.702Z,19.28
2022-08-22T04:37:21.129Z,19.37
2022-08-22T04:39:55.748Z,19.39
2022-08-22T04:42:33.516Z,19.39
2022-08-22T04:45:10.447Z,19.30
2022-08-22T04:47:43.997Z,19.23
2022-08-22T04:50:26.546Z,19.16
2022-08-22T04:53:18.737Z,19.13
2022-08-22T04:55:54.766Z,19.21
2022-08-22T04:58:51.988Z,19.26
2022-08-22T05:01:20.827Z,19.23
2022-08-22T05:03:57.893Z,19.13
2022-08-22T05:06:30.216Z,19.15
2022-08-22T05:09:05.964Z,19.13
2022-08-22T05:11:37.076Z,19.22
2022-08-22T05:14:12.233Z,19.29
2022-08-22T05:16:42.826Z,19.31
2022-08-22T05:19:22.989Z,19.22
2022-08-22T05:21:56.110Z,19.28
2022-08-22T05:24:37.528Z,19.38
2022-08-22T05:27:11.817Z,19.46
2022-08-22T05:29:43.755Z,19.51
2022-08-22T05:32:23.937Z,19.52
2022-08-22T05:34:55.102Z,19.70
2022-08-22T05:37:41.610Z,19.72
2022-08-22T05:40:19.345Z,19.86
2022-08-22T05:42:47.155Z,19.70
2022-08-22T05:45:17.577Z,19.67
2022-08-22T05:47:57.656Z,19.74
2022-08-22T05:50:39.463Z,19.76
2022-08-22T05:53:15.740Z,19.67
2022-08-22T05:55:59.890Z,19.80
2022-08-22T05:58:27.237Z,19.76
2022-08-22T06:01:07.093Z,19.84
2022-08-22T06:04:02.721Z,19.96
2022-08-22T06:06:37.147Z,20.08
2022-08-22T06:09:36.415Z,20.18
2022-08-22T06:12:18.312Z,20.31
2022-08-22T06:15:12.694Z,20.43
2022-08-22T06:17:50.241Z,20.80
2022-08-22T06:20:27.048Z,20.81
2022-08-22T06:23:00.839Z,20.94
2022-08-22T06:25:33.341Z,20.91
2022-08-22T06:28:06.604Z,20.95
2022-08-22T06:30:39.747Z,20.99
2022-08-22T06:33:12.645Z,21.20
2022-08-22T06:36:05.924Z,21.20
2022-08-22T06:39:00.648Z,21.25
2022-08-22T06:41:30.683Z,21.64
2022-08-22T06:44:00.198Z,21.59
2022-08-22T06:46:29.876Z,21.60
2022-08-22T06:49:00.210Z,21.72
2022-08-22T06:51:29.253Z,21.93
2022-08-22T06:54:01.606Z,22.08
2022-08-22T06:56:44.483Z,22.07
2022-08-22T06:59:15.923Z,22.28
2022-08-22T07:01:54.926Z,22.85
2022-08-22T07:04:27.792Z,22.95
2022-08-22T07:06:58.914Z,23.33
2022-08-22T07:09:34.796Z,23.57
2022-08-22T07:12:11.002Z,23.89
2022-08-22T07:14:45.766Z,23.74
2022-08-22T07:17:23.468Z,23.85
2022-08-22T07:20:06.080Z,23.97
2022-08-22T07:22:37.518Z,24.36
2022-08-22T07:25:13.080Z,24.50
2022-08-22T07:27:40.471Z,24.53
2022-08-22T07:30:12.942Z,25.02
2022-08-22T07:32:57.737Z,24.97
2022-08-22T07:35:53.766Z,25.42
2022-08-22T07:38:43.830Z,25.72
2022-08-22T07:41:16.667Z,25.87
2022-08-22T07:43:57.636Z,26.17
2022-08-22T07:46:34.046Z,26.20
2022-08-22T07:49:10.704Z,26.43
2022-08-22T07:51:49.651Z,26.19
2022-08-22T07:54:27.768Z,26.30
2022-08-22T07:57:21.290Z,26.67
2022-08-22T07:59:53.973Z,26.67
2022-08-22T08:02:23.372Z,26.59
2022-08-22T08:04:55.197Z,26.53
2022-08-22T08:07:29.011Z,26.40
2022-08-22T08:10:13.075Z,26.82
2022-08-22T08:12:58.029Z,27.05
2022-08-22T08:15:37.437Z,27.18
2022-08-22T08:18:14.253Z,27.31
2022-08-22T08:20:42.228Z,27.59
2022-08-22T08:23:12.724Z,27.58
2022-08-22T08:25:59.393Z,27.68
2022-08-22T08:28:37.581Z,27.65
2022-08-22T08:31:12.655Z,27.66
2022-08-22T08:33:44.153Z,27.81
2022-08-22T08:36:34.251Z,27.84
2022-08-22T08:39:39.499Z,27.26
2022-08-22T08:42:28.341Z,27.65
2022-08-22T08:45:18.786Z,27.04
2022-08-22T08:48:16.795Z,27.93
2022-08-22T08:50:51.631Z,27.30
2022-08-22T08:53:53.005Z,27.92
2022-08-22T08:56:54.303Z,27.96
2022-08-22T08:59:45.169Z,28.34
2022-08-22T09:02:23.759Z,28.28
2022-08-22T09:05:09.207Z,28.39
2022-08-22T09:07:49.139Z,28.31
2022-08-22T09:10:59.975Z,28.62
2022-08-22T09:13:46.150Z,28.70
2022-08-22T09:16:24.673Z,28.61
2022-08-22T09:19:40.593Z,28.47
2022-08-22T09:22:14.723Z,28.38
2022-08-22T09:25:14.811Z,29.09
2022-08-22T09:28:13.635Z,29.29
2022-08-22T09:31:02.465Z,28.96
2022-08-22T09:33:54.647Z,28.64
2022-08-22T09:36:31.246Z,28.36
2022-08-22T09:39:18.899Z,28.37
2022-08-22T09:42:03.580Z,28.88
2022-08-22T09:44:56.223Z,29.03
2022-08-22T09:47:51.872Z,28.89
2022-08-22T09:50:35.641Z,29.16
2022-08-22T09:53:13.891Z,29.38
2022-08-22T09:56:15.873Z,29.44
2022-08-22T09:59:16.260Z,29.73
2022-08-22T10:02:06.139Z,29.55
2022-08-22T10:04:56.610Z,29.78
2022-08-22T10:07:52.707Z,29.77
2022-08-22T10:10:39.955Z,29.80
2022-08-22T10:13:17.127Z,29.95
2022-08-22T10:15:57.894Z,29.88
2022-08-22T10:18:52.755Z,29.91
2022-08-22T10:22:03.562Z,29.92
2022-08-22T10:24:43.786Z,30.17
2022-08-22T10:27:38.067Z,30.07
2022-08-22T10:30:13.210Z,30.08
2022-08-22T10:32:52.762Z,29.56
2022-08-22T10:35:21.415Z,29.19
2022-08-22T10:37:59.564Z,29.36
2022-08-22T10:40:39.240Z,29.77
2022-08-22T10:43:31.225Z,29.88
2022-08-22T10:46:20.046Z,29.05
2022-08-22T10:48:56.312Z,29.15
2022-08-22T10:51:46.615Z,29.73
2022-08-22T10:55:01.527Z,30.14
2022-08-22T10:58:04.607Z,30.34
2022-08-22T11:00:54.371Z,30.52
2022-08-22T11:04:00.513Z,30.47
2022-08-22T11:06:37.435Z,30.46
2022-08-22T11:09:13.215Z,30.72
2022-08-22T11:12:03.028Z,30.78
2022-08-22T11:14:40.397Z,30.42
2022-08-22T11:17:27.575Z,30.54
2022-08-22T11:20:21.428Z,30.46
2022-08-22T11:23:26.026Z,30.07
2022-08-22T11:26:13.463Z,29.95
2022-08-22T11:28:57.682Z,30.53
2022-08-22T11:31:51.504Z,30.71
2022-08-22T11:34:33.586Z,30.09
2022-08-22T11:37:11.786Z,30.17
2022-08-22T11:39:45.293Z,30.50
2022-08-22T11:42:33.339Z,30.69
2022-08-22T11:45:08.707Z,30.74
2022-08-22T11:47:49.976Z,30.82
2022-08-22T11:50:28.244Z,30.76
2022-08-22T11:53:11.859Z,30.64
2022-08-22T11:56:05.491Z,30.75
2022-08-22T11:58:44.296Z,30.73
2022-08-22T12:01:18.549Z,30.66
2022-08-22T12:03:58.444Z,30.88
2022-08-22T12:06:34.727Z,31.01
2022-08-22T12:09:24.370Z,30.71
2022-08-22T12:12:43.347Z,30.74
2022-08-22T12:15:21.286Z,30.74
2022-08-22T12:18:07.556Z,30.81
2022-08-22T12:21:01.018Z,30.91
2022-08-22T12:23:49.611Z,31.04
2022-08-22T12:26:45.973Z,31.10
2022-08-22T12:30:03.781Z,30.94
2022-08-22T12:32:52.193Z,30.93
2022-08-22T12:35:38.939Z,31.13
2022-08-22T12:38:34.826Z,31.44
2022-08-22T12:41:35.232Z,31.48
2022-08-22T12:44:23.044Z,31.39
2022-08-22T12:47:26.482Z,31.13
2022-08-22T12:50:04.150Z,31.23
2022-08-22T12:53:01.129Z,31.08
2022-08-22T12:55:47.668Z,31.38
2022-08-22T12:58:43.879Z,31.15
2022-08-22T13:01:12.339Z,31.19
2022-08-22T13:03:59.733Z,31.06
2022-08-22T13:06:36.351Z,30.77
2022-08-22T13:09:09.892Z,31.10
2022-08-22T13:11:43.779Z,31.19
2022-08-22T13:14:24.048Z,31.22
2022-08-22T13:17:10.260Z,31.37
2022-08-22T13:19:59.831Z,31.07
2022-08-22T13:22:32.014Z,30.88
2022-08-22T13:25:08.594Z,30.92
2022-08-22T13:27:51.162Z,31.21
2022-08-22T13:30:28.883Z,31.27
2022-08-22T13:33:04.064Z,31.18
2022-08-22T13:35:42.214Z,31.21
2022-08-22T13:38:25.593Z,31.05
2022-08-22T13:40:58.467Z,30.77
2022-08-22T13:43:30.233Z,30.97
2022-08-22T13:46:14.291Z,31.24
2022-08-22T13:48:51.890Z,31.01
2022-08-22T13:51:40.239Z,30.43
2022-08-22T13:54:11.027Z,30.39
2022-08-22T13:56:52.845Z,30.73
2022-08-22T13:59:53.728Z,30.95
2022-08-22T14:03:00.401Z,30.90
2022-08-22T14:05:34.446Z,30.92
2022-08-22T14:08:15.042Z,31.09
2022-08-22T14:10:55.197Z,30.70
2022-08-22T14:13:45.251Z,30.91
2022-08-22T14:16:25.215Z,31.15
2022-08-22T14:19:06.137Z,31.15
2022-08-22T14:21:48.272Z,31.33
2022-08-22T14:24:25.638Z,31.50
2022-08-22T14:27:14.908Z,31.44
2022-08-22T14:29:52.246Z,31.22
2022-08-22T14:32:25.865Z,31.27
2022-08-22T14:35:04.866Z,31.35
2022-08-22T14:37:39.045Z,31.21
2022-08-22T14:40:14.563Z,30.98
2022-08-22T14:42:48.647Z,30.91
2022-08-22T14:45:23.111Z,30.78
2022-08-22T14:48:29.464Z,30.66
2022-08-22T14:51:01.600Z,30.85
2022-08-22T14:53:35.443Z,30.77
2022-08-22T14:56:11.300Z,31.05
2022-08-22T14:58:54.089Z,31.22
2022-08-22T15:01:25.276Z,31.02
2022-08-22T15:03:59.563Z,31.14
2022-08-22T15:06:54.335Z,31.09
2022-08-22T15:09:32.775Z,31.15
2022-08-22T15:12:03.552Z,30.72
2022-08-22T15:14:37.310Z,31.03
2022-08-22T15:17:08.554Z,30.61
2022-08-22T15:19:41.849Z,30.66
2022-08-22T15:22:30.030Z,30.56
2022-08-22T15:25:04.171Z,30.64
2022-08-22T15:27:43.163Z,30.32
2022-08-22T15:30:18.834Z,30.32
2022-08-22T15:32:49.360Z,30.42
2022-08-22T15:35:31.272Z,30.62
2022-08-22T15:38:08.998Z,30.52
2022-08-22T15:40:41.325Z,30.63
2022-08-22T15:43:28.851Z,30.90
2022-08-22T15:46:21.444Z,30.75
2022-08-22T15:49:11.187Z,30.58
2022-08-22T15:52:03.390Z,30.55
2022-08-22T15:54:51.332Z,30.45
2022-08-22T15:57:29.360Z,30.27
2022-08-22T16:00:23.909Z,30.51
2022-08-22T16:03:00.605Z,30.59
2022-08-22T16:05:55.401Z,30.37
2022-08-22T16:08:29.567Z,30.30
2022-08-22T16:11:03.567Z,30.31
2022-08-22T16:13:31.048Z,30.06
2022-08-22T16:16:25.214Z,30.19
2022-08-22T16:22:08.146Z,30.10
2022-08-22T16:25:00.839Z,30.21
2022-08-22T16:27:30.749Z,30.23
2022-08-22T16:30:07.498Z,30.38
2022-08-22T16:32:36.086Z,30.54
2022-08-22T16:35:49.212Z,29.97
2022-08-22T16:38:36.622Z,29.77
2022-08-22T16:41:06.784Z,29.83
2022-08-22T16:43:34.515Z,29.89
2022-08-22T16:46:21.268Z,29.95
2022-08-22T16:49:01.473Z,30.05
2022-08-22T16:51:28.898Z,29.85
2022-08-22T16:54:13.175Z,30.09
2022-08-22T16:57:07.631Z,30.07
2022-08-22T16:59:54.709Z,30.05
2022-08-22T17:02:37.552Z,29.72
2022-08-22T17:05:24.443Z,29.90
2022-08-22T17:08:13.001Z,29.93
2022-08-22T17:10:40.422Z,29.72
2022-08-22T17:13:26.488Z,29.61
2022-08-22T17:16:15.534Z,29.79
2022-08-22T17:18:58.233Z,29.67
2022-08-22T17:21:51.787Z,29.65
2022-08-22T17:24:39.900Z,29.63
2022-08-22T17:27:35.931Z,29.49
2022-08-22T17:30:09.499Z,29.42
2022-08-22T17:32:59.820Z,29.18
2022-08-22T17:35:58.782Z,28.75
2022-08-22T17:38:50.865Z,28.64
2022-08-22T17:41:27.466Z,28.42
2022-08-22T17:44:30.502Z,28.64
2022-08-22T17:47:18.039Z,28.63
2022-08-22T17:50:00.540Z,28.78
2022-08-22T17:52:37.414Z,28.61
2022-08-22T17:55:29.419Z,28.54
2022-08-22T17:58:06.657Z,28.44
2022-08-22T18:00:39.549Z,28.43
2022-08-22T18:03:29.575Z,28.43
2022-08-22T18:06:11.569Z,28.27
2022-08-22T18:12:01.878Z,28.11
2022-08-22T18:14:52.755Z,27.81
2022-08-22T18:17:29.041Z,27.44
2022-08-22T18:20:07.694Z,27.05
2022-08-22T18:23:00.470Z,27.04
2022-08-22T18:25:39.870Z,27.16
2022-08-22T18:28:36.121Z,26.95
2022-08-22T18:31:09.023Z,26.96
2022-08-22T18:33:44.688Z,26.93
2022-08-22T18:36:18.860Z,26.76
2022-08-22T18:38:55.874Z,26.17
2022-08-22T18:41:45.096Z,26.26
2022-08-22T18:44:20.151Z,26.28
2022-08-22T18:46:51.599Z,26.49
2022-08-22T18:49:22.523Z,26.33
2022-08-22T18:52:25.432Z,26.19
2022-08-22T18:55:17.920Z,26.25
2022-08-22T18:57:58.722Z,26.07
2022-08-22T19:01:10.344Z,25.64
2022-08-22T19:04:08.942Z,25.79
2022-08-22T19:07:10.080Z,25.73
2022-08-22T19:09:53.799Z,25.80
2022-08-22T19:12:58.127Z,25.90
2022-08-22T19:15:51.876Z,25.57
2022-08-22T19:18:29.849Z,25.46
2022-08-22T19:21:37.742Z,25.26
2022-08-22T19:24:13.607Z,25.26
2022-08-22T19:26:47.753Z,25.08
2022-08-22T19:29:17.929Z,24.97
2022-08-22T19:31:51.010Z,25.04
2022-08-22T19:34:33.887Z,24.92
2022-08-22T19:37:32.860Z,24.85
2022-08-22T19:40:02.950Z,24.75
2022-08-22T19:42:36.017Z,24.76
2022-08-22T19:45:29.035Z,24.83
2022-08-22T19:48:13.899Z,24.91
2022-08-22T19:50:43.265Z,24.83
2022-08-22T19:53:13.367Z,24.78
2022-08-22T19:56:02.521Z,24.75
2022-08-22T19:59:02.668Z,24.74
2022-08-22T20:01:56.185Z,24.66
2022-08-22T20:04:46.243Z,24.56
2022-08-22T20:07:28.346Z,24.49
2022-08-22T20:10:26.759Z,24.61
2022-08-22T20:13:08.637Z,24.49
2022-08-22T20:16:16.099Z,24.44
2022-08-22T20:19:08.862Z,24.48
2022-08-22T20:21:46.292Z,24.20
2022-08-22T20:24:32.356Z,24.25
2022-08-22T20:27:14.491Z,24.28
2022-08-22T20:29:51.290Z,24.34
2022-08-22T20:32:23.399Z,24.02
2022-08-22T20:34:58.970Z,23.90
2022-08-22T20:38:05.413Z,23.89
2022-08-22T20:40:56.291Z,23.90
2022-08-22T20:43:28.215Z,23.89
2022-08-22T20:46:13.853Z,23.96
2022-08-22T20:48:45.047Z,23.91
2022-08-22T20:51:15.968Z,23.96
2022-08-22T20:53:54.965Z,23.94
2022-08-22T20:56:53.139Z,23.90
2022-08-22T20:59:37.152Z,23.87
2022-08-22T21:02:22.521Z,23.94
2022-08-22T21:05:03.566Z,23.59
2022-08-22T21:07:37.797Z,23.48
2022-08-22T21:10:27.006Z,23.48
2022-08-22T21:13:16.487Z,23.35
2022-08-22T21:15:59.652Z,23.27
2022-08-22T21:18:38.522Z,23.36
2022-08-22T21:21:16.956Z,23.39
2022-08-22T21:23:51.631Z,23.32
2022-08-22T21:26:21.350Z,23.35
2022-08-22T21:29:18.714Z,23.50
2022-08-22T21:31:59.313Z,23.46
2022-08-22T21:34:36.756Z,23.48
2022-08-22T21:37:16.487Z,23.41
2022-08-22T21:39:47.985Z,23.39
2022-08-22T21:42:34.657Z,23.14
2022-08-22T21:45:08.284Z,23.07
2022-08-22T21:47:39.559Z,22.97
2022-08-22T21:50:12.660Z,22.78
2022-08-22T21:53:01.761Z,22.80
2022-08-22T21:55:30.552Z,22.91
2022-08-22T21:58:03.750Z,22.78
2022-08-22T22:01:01.862Z,22.55
2022-08-22T22:03:34.777Z,22.61
2022-08-22T22:06:05.373Z,22.56
2022-08-22T22:08:33.382Z,22.42
2022-08-22T22:11:06.006Z,22.47
2022-08-22T22:13:36.222Z,22.44
2022-08-22T22:16:05.769Z,22.52
2022-08-22T22:18:34.414Z,22.42
2022-08-22T22:21:02.167Z,22.35
2022-08-22T22:23:29.732Z,22.27
2022-08-22T22:26:01.225Z,22.20
2022-08-22T22:28:32.341Z,22.21
2022-08-22T22:31:00.040Z,22.21
2022-08-22T22:33:30.771Z,22.20
2022-08-22T22:36:03.575Z,22.15
2022-08-22T22:38:30.940Z,22.11
2022-08-22T22:40:58.268Z,21.98
2022-08-22T22:43:26.613Z,21.99
2022-08-22T22:45:53.940Z,22.18
2022-08-22T22:48:24.553Z,22.18
2022-08-22T22:50:54.929Z,22.12
2022-08-22T22:53:33.647Z,22.09
2022-08-22T22:56:09.941Z,21.99
2022-08-22T22:58:38.293Z,21.81
2022-08-22T23:01:10.474Z,21.67
2022-08-22T23:03:38.108Z,21.64
2022-08-22T23:06:13.673Z,21.70
2022-08-22T23:08:41.274Z,21.80
2022-08-22T23:11:19.587Z,21.71
2022-08-22T23:13:48.353Z,21.67
2022-08-22T23:16:19.374Z,21.73
2022-08-22T23:18:47.381Z,21.72
2022-08-22T23:21:17.339Z,21.66
2022-08-22T23:23:45.773Z,21.69
2022-08-22T23:26:13.373Z,21.64
2022-08-22T23:28:40.924Z,21.61
2022-08-22T23:31:26.420Z,21.55
2022-08-22T23:33:54.858Z,21.45
2022-08-22T23:36:23.902Z,21.37
2022-08-22T23:38:52.591Z,21.33
2022-08-22T23:41:21.607Z,21.31
2022-08-22T23:43:52.469Z,21.36
2022-08-22T23:46:22.827Z,21.39
2022-08-22T23:48:50.607Z,21.30
2022-08-22T23:51:22.964Z,21.25
2022-08-22T23:53:53.654Z,21.25
2022-08-22T23:56:26.863Z,21.22
2022-08-22T23:58:54.313Z,21.19
